sensor_id;sensor_type;location;lat;lon;timestamp;pressure;altitude;pressure_sealevel;temperature;humidity
52957;BME280;38819;42.692;23.342;2023-12-20T00:00:38;95695.66;;;2.39;76.81
52957;BME280;38819;42.692;23.342;2023-12-20T00:03:03;95696.47;;;2.40;76.64
52957;BME280;38819;42.692;23.342;2023-12-20T00:05:29;95691.56;;;2.37;76.17
52957;BME280;38819;42.692;23.342;2023-12-20T00:07:57;95689.00;;;2.30;76.34
52957;BME280;38819;42.692;23.342;2023-12-20T00:10:22;95688.00;;;2.31;76.61
52957;BME280;38819;42.692;23.342;2023-12-20T00:12:47;95685.22;;;2.38;76.87
52957;BME280;38819;42.692;23.342;2023-12-20T00:15:12;95684.75;;;2.41;77.03
52957;BME280;38819;42.692;23.342;2023-12-20T00:17:37;95684.31;;;2.44;76.92
52957;BME280;38819;42.692;23.342;2023-12-20T00:20:03;95681.75;;;2.37;76.58
52957;BME280;38819;42.692;23.342;2023-12-20T00:22:28;95679.75;;;2.21;76.74
52957;BME280;38819;42.692;23.342;2023-12-20T00:24:53;95666.75;;;2.13;77.18
52957;BME280;38819;42.692;23.342;2023-12-20T00:27:19;95668.59;;;2.12;77.26
52957;BME280;38819;42.692;23.342;2023-12-20T00:29:44;95664.97;;;2.07;77.27
52957;BME280;38819;42.692;23.342;2023-12-20T00:32:12;95669.03;;;1.97;78.17
52957;BME280;38819;42.692;23.342;2023-12-20T00:34:38;95657.31;;;1.98;78.72
52957;BME280;38819;42.692;23.342;2023-12-20T00:37:03;95652.81;;;1.99;78.31
52957;BME280;38819;42.692;23.342;2023-12-20T00:39:28;95655.31;;;1.94;79.53
52957;BME280;38819;42.692;23.342;2023-12-20T00:41:53;95646.53;;;1.93;79.32
52957;BME280;38819;42.692;23.342;2023-12-20T00:44:19;95654.19;;;2.01;79.07
52957;BME280;38819;42.692;23.342;2023-12-20T00:46:44;95644.44;;;1.95;79.07
52957;BME280;38819;42.692;23.342;2023-12-20T00:49:09;95643.53;;;2.01;78.54
52957;BME280;38819;42.692;23.342;2023-12-20T00:51:34;95642.78;;;1.82;78.24
52957;BME280;38819;42.692;23.342;2023-12-20T00:54:00;95635.91;;;1.75;78.01
52957;BME280;38819;42.692;23.342;2023-12-20T00:56:25;95639.25;;;1.70;77.77
52957;BME280;38819;42.692;23.342;2023-12-20T00:58:50;95634.63;;;1.65;77.73
52957;BME280;38819;42.692;23.342;2023-12-20T01:01:15;95631.63;;;1.74;77.30
52957;BME280;38819;42.692;23.342;2023-12-20T01:03:41;95637.44;;;1.71;76.87
52957;BME280;38819;42.692;23.342;2023-12-20T01:06:06;95630.91;;;1.66;76.76
52957;BME280;38819;42.692;23.342;2023-12-20T01:08:31;95622.34;;;1.64;76.83
52957;BME280;38819;42.692;23.342;2023-12-20T01:10:56;95621.41;;;1.59;76.76
52957;BME280;38819;42.692;23.342;2023-12-20T01:13:22;95613.66;;;1.57;76.95
52957;BME280;38819;42.692;23.342;2023-12-20T01:15:47;95616.00;;;1.47;77.33
52957;BME280;38819;42.692;23.342;2023-12-20T01:18:13;95617.06;;;1.46;77.50
52957;BME280;38819;42.692;23.342;2023-12-20T01:20:38;95612.41;;;1.41;77.53
52957;BME280;38819;42.692;23.342;2023-12-20T01:23:03;95606.16;;;1.36;77.85
52957;BME280;38819;42.692;23.342;2023-12-20T01:25:28;95607.88;;;1.42;78.06
52957;BME280;38819;42.692;23.342;2023-12-20T01:27:54;95603.31;;;1.49;77.95
52957;BME280;38819;42.692;23.342;2023-12-20T01:30:19;95599.38;;;1.52;77.67
52957;BME280;38819;42.692;23.342;2023-12-20T01:32:44;95596.63;;;1.58;77.62
52957;BME280;38819;42.692;23.342;2023-12-20T01:35:09;95588.50;;;1.53;76.82
52957;BME280;38819;42.692;23.342;2023-12-20T01:37:35;95586.72;;;1.47;76.54
52957;BME280;38819;42.692;23.342;2023-12-20T01:40:00;95593.47;;;1.50;76.35
52957;BME280;38819;42.692;23.342;2023-12-20T01:42:25;95578.06;;;1.52;76.30
52957;BME280;38819;42.692;23.342;2023-12-20T01:44:50;95581.19;;;1.48;76.34
52957;BME280;38819;42.692;23.342;2023-12-20T01:47:16;95570.53;;;1.48;76.30
52957;BME280;38819;42.692;23.342;2023-12-20T01:49:41;95565.06;;;1.43;76.28
52957;BME280;38819;42.692;23.342;2023-12-20T01:52:06;95567.47;;;1.33;76.60
52957;BME280;38819;42.692;23.342;2023-12-20T01:54:33;95555.88;;;1.27;77.13
52957;BME280;38819;42.692;23.342;2023-12-20T01:56:59;95564.94;;;1.38;77.00
52957;BME280;38819;42.692;23.342;2023-12-20T01:59:24;95566.00;;;1.37;76.60
52957;BME280;38819;42.692;23.342;2023-12-20T02:01:50;95552.69;;;1.37;76.66
52957;BME280;38819;42.692;23.342;2023-12-20T02:04:15;95559.63;;;1.38;76.53
52957;BME280;38819;42.692;23.342;2023-12-20T02:06:41;95556.59;;;1.35;76.31
52957;BME280;38819;42.692;23.342;2023-12-20T02:09:07;95549.91;;;1.32;76.13
52957;BME280;38819;42.692;23.342;2023-12-20T02:11:33;95545.44;;;1.14;76.42
52957;BME280;38819;42.692;23.342;2023-12-20T02:14:00;95546.22;;;1.15;76.15
52957;BME280;38819;42.692;23.342;2023-12-20T02:16:25;95549.78;;;1.08;75.89
52957;BME280;38819;42.692;23.342;2023-12-20T02:18:51;95543.88;;;1.06;75.74
52957;BME280;38819;42.692;23.342;2023-12-20T02:21:16;95537.16;;;1.04;75.60
52957;BME280;38819;42.692;23.342;2023-12-20T02:23:41;95538.31;;;1.08;75.23
52957;BME280;38819;42.692;23.342;2023-12-20T02:26:06;95544.31;;;1.03;75.13
52957;BME280;38819;42.692;23.342;2023-12-20T02:28:32;95537.03;;;0.99;75.02
52957;BME280;38819;42.692;23.342;2023-12-20T02:30:57;95536.63;;;0.95;75.26
52957;BME280;38819;42.692;23.342;2023-12-20T02:33:22;95529.94;;;0.92;75.22
52957;BME280;38819;42.692;23.342;2023-12-20T02:35:48;95525.56;;;0.98;75.27
52957;BME280;38819;42.692;23.342;2023-12-20T02:38:13;95518.84;;;0.96;74.80
52957;BME280;38819;42.692;23.342;2023-12-20T02:40:38;95520.53;;;0.90;75.04
52957;BME280;38819;42.692;23.342;2023-12-20T02:43:04;95514.56;;;0.95;75.10
52957;BME280;38819;42.692;23.342;2023-12-20T02:45:29;95513.47;;;0.84;75.15
52957;BME280;38819;42.692;23.342;2023-12-20T02:47:55;95515.16;;;0.78;75.45
52957;BME280;38819;42.692;23.342;2023-12-20T02:50:20;95515.53;;;0.82;75.75
52957;BME280;38819;42.692;23.342;2023-12-20T02:52:45;95515.44;;;0.88;75.50
52957;BME280;38819;42.692;23.342;2023-12-20T02:55:11;95514.00;;;0.74;76.11
52957;BME280;38819;42.692;23.342;2023-12-20T02:57:36;95514.94;;;0.80;76.24
52957;BME280;38819;42.692;23.342;2023-12-20T03:00:06;95517.78;;;0.66;76.63
52957;BME280;38819;42.692;23.342;2023-12-20T03:02:32;95514.88;;;0.68;76.67
52957;BME280;38819;42.692;23.342;2023-12-20T03:04:58;95514.59;;;0.58;77.02
52957;BME280;38819;42.692;23.342;2023-12-20T03:07:25;95512.31;;;0.61;77.35
52957;BME280;38819;42.692;23.342;2023-12-20T03:09:50;95504.78;;;0.58;77.75
52957;BME280;38819;42.692;23.342;2023-12-20T03:12:15;95510.38;;;0.50;78.57
52957;BME280;38819;42.692;23.342;2023-12-20T03:14:41;95514.09;;;0.49;79.01
52957;BME280;38819;42.692;23.342;2023-12-20T03:17:06;95510.69;;;0.42;79.59
52957;BME280;38819;42.692;23.342;2023-12-20T03:19:31;95508.16;;;0.47;79.59
52957;BME280;38819;42.692;23.342;2023-12-20T03:21:56;95508.69;;;0.55;79.86
52957;BME280;38819;42.692;23.342;2023-12-20T03:24:21;95498.00;;;0.62;79.16
52957;BME280;38819;42.692;23.342;2023-12-20T03:26:47;95501.09;;;0.59;79.12
52957;BME280;38819;42.692;23.342;2023-12-20T03:29:12;95495.28;;;0.50;79.09
52957;BME280;38819;42.692;23.342;2023-12-20T03:31:37;95497.78;;;0.64;79.14
52957;BME280;38819;42.692;23.342;2023-12-20T03:34:02;95494.97;;;0.59;78.80
52957;BME280;38819;42.692;23.342;2023-12-20T03:36:28;95494.13;;;0.58;78.55
52957;BME280;38819;42.692;23.342;2023-12-20T03:38:53;95494.97;;;0.59;78.44
52957;BME280;38819;42.692;23.342;2023-12-20T03:41:18;95498.78;;;0.63;78.46
52957;BME280;38819;42.692;23.342;2023-12-20T03:43:43;95486.91;;;0.65;78.32
52957;BME280;38819;42.692;23.342;2023-12-20T03:46:09;95490.03;;;0.62;78.71
52957;BME280;38819;42.692;23.342;2023-12-20T03:48:34;95492.59;;;0.69;78.48
52957;BME280;38819;42.692;23.342;2023-12-20T03:50:59;95485.66;;;0.68;78.75
52957;BME280;38819;42.692;23.342;2023-12-20T03:53:24;95479.59;;;0.61;79.24
52957;BME280;38819;42.692;23.342;2023-12-20T03:55:50;95480.09;;;0.69;78.98
52957;BME280;38819;42.692;23.342;2023-12-20T03:58:15;95485.47;;;0.81;78.79
52957;BME280;38819;42.692;23.342;2023-12-20T04:00:40;95478.09;;;0.83;78.21
52957;BME280;38819;42.692;23.342;2023-12-20T04:03:05;95483.47;;;0.77;78.52
52957;BME280;38819;42.692;23.342;2023-12-20T04:05:30;95473.47;;;0.79;78.16
52957;BME280;38819;42.692;23.342;2023-12-20T04:07:56;95475.72;;;0.75;78.34
52957;BME280;38819;42.692;23.342;2023-12-20T04:10:21;95468.16;;;0.79;78.33
52957;BME280;38819;42.692;23.342;2023-12-20T04:12:46;95471.69;;;0.72;78.42
52957;BME280;38819;42.692;23.342;2023-12-20T04:15:11;95464.75;;;0.71;78.35
52957;BME280;38819;42.692;23.342;2023-12-20T04:17:37;95467.63;;;0.70;78.46
52957;BME280;38819;42.692;23.342;2023-12-20T04:20:02;95455.97;;;0.71;78.27
52957;BME280;38819;42.692;23.342;2023-12-20T04:22:28;95468.81;;;0.74;78.04
52957;BME280;38819;42.692;23.342;2023-12-20T04:24:53;95457.34;;;0.73;77.77
52957;BME280;38819;42.692;23.342;2023-12-20T04:27:18;95453.53;;;0.69;77.91
52957;BME280;38819;42.692;23.342;2023-12-20T04:29:43;95451.00;;;0.74;77.70
52957;BME280;38819;42.692;23.342;2023-12-20T04:32:09;95448.59;;;0.85;77.00
52957;BME280;38819;42.692;23.342;2023-12-20T04:34:34;95450.34;;;0.79;77.18
52957;BME280;38819;42.692;23.342;2023-12-20T04:36:59;95436.78;;;0.69;77.09
52957;BME280;38819;42.692;23.342;2023-12-20T04:39:26;95442.63;;;0.59;77.63
52957;BME280;38819;42.692;23.342;2023-12-20T04:41:51;95444.91;;;0.55;77.82
52957;BME280;38819;42.692;23.342;2023-12-20T04:44:17;95436.88;;;0.44;77.96
52957;BME280;38819;42.692;23.342;2023-12-20T04:46:42;95447.59;;;0.37;77.67
52957;BME280;38819;42.692;23.342;2023-12-20T04:49:07;95447.03;;;0.47;77.42
52957;BME280;38819;42.692;23.342;2023-12-20T04:51:33;95441.31;;;0.31;77.07
52957;BME280;38819;42.692;23.342;2023-12-20T04:53:59;95435.84;;;0.26;77.23
52957;BME280;38819;42.692;23.342;2023-12-20T04:56:24;95432.59;;;0.24;76.66
52957;BME280;38819;42.692;23.342;2023-12-20T04:58:49;95435.47;;;0.23;76.95
52957;BME280;38819;42.692;23.342;2023-12-20T05:01:14;95434.91;;;0.21;77.15
52957;BME280;38819;42.692;23.342;2023-12-20T05:03:40;95440.50;;;0.12;77.32
52957;BME280;38819;42.692;23.342;2023-12-20T05:06:05;95424.34;;;0.14;77.12
52957;BME280;38819;42.692;23.342;2023-12-20T05:08:30;95438.72;;;0.06;77.73
52957;BME280;38819;42.692;23.342;2023-12-20T05:10:56;95432.91;;;0.16;77.72
52957;BME280;38819;42.692;23.342;2023-12-20T05:13:21;95427.22;;;0.12;77.87
52957;BME280;38819;42.692;23.342;2023-12-20T05:15:46;95432.53;;;0.12;78.13
52957;BME280;38819;42.692;23.342;2023-12-20T05:18:12;95429.72;;;0.26;77.52
52957;BME280;38819;42.692;23.342;2023-12-20T05:20:38;95416.88;;;0.23;77.49
52957;BME280;38819;42.692;23.342;2023-12-20T05:23:03;95420.28;;;0.30;77.40
52957;BME280;38819;42.692;23.342;2023-12-20T05:25:28;95423.84;;;0.24;77.22
52957;BME280;38819;42.692;23.342;2023-12-20T05:27:54;95421.63;;;0.21;77.57
52957;BME280;38819;42.692;23.342;2023-12-20T05:30:19;95416.66;;;0.24;77.51
52957;BME280;38819;42.692;23.342;2023-12-20T05:32:44;95415.78;;;0.30;77.34
52957;BME280;38819;42.692;23.342;2023-12-20T05:35:09;95407.72;;;0.37;76.92
52957;BME280;38819;42.692;23.342;2023-12-20T05:37:34;95403.22;;;0.38;76.78
52957;BME280;38819;42.692;23.342;2023-12-20T05:40:00;95408.22;;;0.46;76.64
52957;BME280;38819;42.692;23.342;2023-12-20T05:42:25;95407.78;;;0.49;76.25
52957;BME280;38819;42.692;23.342;2023-12-20T05:44:50;95403.84;;;0.51;76.11
52957;BME280;38819;42.692;23.342;2023-12-20T05:47:15;95407.56;;;0.50;75.88
52957;BME280;38819;42.692;23.342;2023-12-20T05:49:41;95407.94;;;0.54;76.61
52957;BME280;38819;42.692;23.342;2023-12-20T05:52:07;95400.31;;;0.58;76.36
52957;BME280;38819;42.692;23.342;2023-12-20T05:54:32;95395.16;;;0.44;76.10
52957;BME280;38819;42.692;23.342;2023-12-20T05:56:57;95395.88;;;0.51;76.29
52957;BME280;38819;42.692;23.342;2023-12-20T05:59:22;95397.22;;;0.61;76.30
52957;BME280;38819;42.692;23.342;2023-12-20T06:01:47;95393.97;;;0.59;75.96
52957;BME280;38819;42.692;23.342;2023-12-20T06:04:13;95398.38;;;0.65;75.76
52957;BME280;38819;42.692;23.342;2023-12-20T06:06:41;95386.78;;;0.59;75.93
52957;BME280;38819;42.692;23.342;2023-12-20T06:09:07;95386.66;;;0.54;76.23
52957;BME280;38819;42.692;23.342;2023-12-20T06:11:32;95396.31;;;0.48;76.48
52957;BME280;38819;42.692;23.342;2023-12-20T06:13:57;95384.09;;;0.47;76.62
52957;BME280;38819;42.692;23.342;2023-12-20T06:16:23;95386.31;;;0.50;76.61
52957;BME280;38819;42.692;23.342;2023-12-20T06:18:48;95393.97;;;0.59;76.29
52957;BME280;38819;42.692;23.342;2023-12-20T06:21:13;95397.34;;;0.66;75.93
52957;BME280;38819;42.692;23.342;2023-12-20T06:23:39;95397.78;;;0.63;76.18
52957;BME280;38819;42.692;23.342;2023-12-20T06:26:04;95389.84;;;0.74;75.97
52957;BME280;38819;42.692;23.342;2023-12-20T06:28:29;95389.84;;;0.74;75.71
52957;BME280;38819;42.692;23.342;2023-12-20T06:30:55;95392.41;;;0.81;75.36
52957;BME280;38819;42.692;23.342;2023-12-20T06:33:21;95385.84;;;0.84;75.24
52957;BME280;38819;42.692;23.342;2023-12-20T06:35:47;95390.66;;;0.75;75.34
52957;BME280;38819;42.692;23.342;2023-12-20T06:38:12;95397.03;;;0.74;75.59
52957;BME280;38819;42.692;23.342;2023-12-20T06:40:38;95394.16;;;0.76;75.81
52957;BME280;38819;42.692;23.342;2023-12-20T06:43:03;95389.41;;;0.78;75.95
52957;BME280;38819;42.692;23.342;2023-12-20T06:45:28;95377.88;;;0.84;76.06
52957;BME280;38819;42.692;23.342;2023-12-20T06:47:53;95372.06;;;0.87;76.38
52957;BME280;38819;42.692;23.342;2023-12-20T06:50:19;95376.72;;;0.91;76.25
52957;BME280;38819;42.692;23.342;2023-12-20T06:52:45;95373.03;;;0.92;76.00
52957;BME280;38819;42.692;23.342;2023-12-20T06:55:10;95373.03;;;0.92;76.00
52957;BME280;38819;42.692;23.342;2023-12-20T06:57:35;95376.63;;;0.98;75.79
52957;BME280;38819;42.692;23.342;2023-12-20T07:00:02;95375.81;;;0.98;75.79
52957;BME280;38819;42.692;23.342;2023-12-20T07:02:27;95366.09;;;1.03;76.26
52957;BME280;38819;42.692;23.342;2023-12-20T07:04:55;95359.41;;;1.13;76.11
52957;BME280;38819;42.692;23.342;2023-12-20T07:07:20;95350.50;;;1.07;76.07
52957;BME280;38819;42.692;23.342;2023-12-20T07:09:46;95364.75;;;1.13;75.84
52957;BME280;38819;42.692;23.342;2023-12-20T07:12:11;95354.22;;;1.06;76.19
52957;BME280;38819;42.692;23.342;2023-12-20T07:14:36;95364.88;;;1.18;76.21
52957;BME280;38819;42.692;23.342;2023-12-20T07:17:02;95355.25;;;1.17;75.69
52957;BME280;38819;42.692;23.342;2023-12-20T07:19:27;95358.25;;;1.20;75.80
52957;BME280;38819;42.692;23.342;2023-12-20T07:21:53;95355.59;;;1.20;75.84
52957;BME280;38819;42.692;23.342;2023-12-20T07:24:18;95350.16;;;1.15;76.21
52957;BME280;38819;42.692;23.342;2023-12-20T07:26:43;95343.13;;;1.21;76.10
52957;BME280;38819;42.692;23.342;2023-12-20T07:29:09;95351.22;;;1.26;76.31
52957;BME280;38819;42.692;23.342;2023-12-20T07:31:34;95335.50;;;1.24;76.37
52957;BME280;38819;42.692;23.342;2023-12-20T07:34:00;95331.53;;;1.27;76.08
52957;BME280;38819;42.692;23.342;2023-12-20T07:36:25;95341.72;;;1.18;75.93
52957;BME280;38819;42.692;23.342;2023-12-20T07:38:50;95343.69;;;1.35;75.89
52957;BME280;38819;42.692;23.342;2023-12-20T07:41:15;95337.69;;;1.39;75.92
52957;BME280;38819;42.692;23.342;2023-12-20T07:43:41;95333.84;;;1.35;75.68
52957;BME280;38819;42.692;23.342;2023-12-20T07:46:06;95339.91;;;1.42;75.72
52957;BME280;38819;42.692;23.342;2023-12-20T07:48:33;95342.78;;;1.41;75.77
52957;BME280;38819;42.692;23.342;2023-12-20T07:50:58;95338.38;;;1.46;76.00
52957;BME280;38819;42.692;23.342;2023-12-20T07:53:23;95340.81;;;1.48;76.08
52957;BME280;38819;42.692;23.342;2023-12-20T07:55:49;95331.69;;;1.44;76.21
52957;BME280;38819;42.692;23.342;2023-12-20T07:58:14;95326.69;;;1.59;76.06
52957;BME280;38819;42.692;23.342;2023-12-20T08:00:39;95330.28;;;1.53;76.17
52957;BME280;38819;42.692;23.342;2023-12-20T08:03:04;95330.94;;;1.60;75.88
52957;BME280;38819;42.692;23.342;2023-12-20T08:05:30;95328.66;;;1.64;76.27
52957;BME280;38819;42.692;23.342;2023-12-20T08:07:55;95326.66;;;1.71;76.04
52957;BME280;38819;42.692;23.342;2023-12-20T08:10:20;95326.44;;;1.73;75.99
52957;BME280;38819;42.692;23.342;2023-12-20T08:12:45;95332.69;;;1.78;75.82
52957;BME280;38819;42.692;23.342;2023-12-20T08:15:11;95323.75;;;1.84;75.58
52957;BME280;38819;42.692;23.342;2023-12-20T08:17:36;95319.34;;;1.90;75.50
52957;BME280;38819;42.692;23.342;2023-12-20T08:20:01;95310.75;;;2.00;75.73
52957;BME280;38819;42.692;23.342;2023-12-20T08:22:26;95311.78;;;2.11;75.77
52957;BME280;38819;42.692;23.342;2023-12-20T08:24:52;95312.09;;;2.14;75.21
52957;BME280;38819;42.692;23.342;2023-12-20T08:27:17;95313.94;;;2.26;75.08
52957;BME280;38819;42.692;23.342;2023-12-20T08:29:43;95304.97;;;2.32;74.57
52957;BME280;38819;42.692;23.342;2023-12-20T08:32:08;95311.34;;;2.31;74.51
52957;BME280;38819;42.692;23.342;2023-12-20T08:34:34;95301.25;;;2.33;74.42
52957;BME280;38819;42.692;23.342;2023-12-20T08:36:59;95300.59;;;2.26;74.26
52957;BME280;38819;42.692;23.342;2023-12-20T08:39:24;95296.63;;;2.28;74.63
52957;BME280;38819;42.692;23.342;2023-12-20T08:41:49;95298.25;;;2.29;74.48
52957;BME280;38819;42.692;23.342;2023-12-20T08:44:15;95297.19;;;2.30;74.61
52957;BME280;38819;42.692;23.342;2023-12-20T08:46:40;95279.44;;;2.19;74.79
52957;BME280;38819;42.692;23.342;2023-12-20T08:49:05;95280.66;;;1.99;74.96
52957;BME280;38819;42.692;23.342;2023-12-20T08:51:30;95272.66;;;1.99;75.70
52957;BME280;38819;42.692;23.342;2023-12-20T08:53:56;95278.53;;;2.01;75.76
52957;BME280;38819;42.692;23.342;2023-12-20T08:56:21;95280.31;;;1.96;76.05
52957;BME280;38819;42.692;23.342;2023-12-20T08:58:46;95272.75;;;2.04;76.53
52957;BME280;38819;42.692;23.342;2023-12-20T09:01:12;95270.31;;;2.03;76.38
52957;BME280;38819;42.692;23.342;2023-12-20T09:03:37;95257.19;;;2.13;76.29
52957;BME280;38819;42.692;23.342;2023-12-20T09:06:03;95245.25;;;2.16;76.15
52957;BME280;38819;42.692;23.342;2023-12-20T09:08:28;95229.59;;;2.19;75.87
52957;BME280;38819;42.692;23.342;2023-12-20T09:10:53;95227.59;;;2.27;76.09
52957;BME280;38819;42.692;23.342;2023-12-20T09:13:18;95225.47;;;2.29;76.09
52957;BME280;38819;42.692;23.342;2023-12-20T09:15:44;95216.06;;;2.38;76.11
52957;BME280;38819;42.692;23.342;2023-12-20T09:18:09;95212.44;;;2.44;76.11
52957;BME280;38819;42.692;23.342;2023-12-20T09:20:34;95198.44;;;2.54;75.95
52957;BME280;38819;42.692;23.342;2023-12-20T09:23:00;95196.84;;;2.53;75.46
52957;BME280;38819;42.692;23.342;2023-12-20T09:25:25;95187.47;;;2.50;75.81
52957;BME280;38819;42.692;23.342;2023-12-20T09:27:51;95182.94;;;2.51;75.83
52957;BME280;38819;42.692;23.342;2023-12-20T09:30:17;95182.19;;;2.55;76.21
52957;BME280;38819;42.692;23.342;2023-12-20T09:32:42;95183.91;;;2.62;75.89
52957;BME280;38819;42.692;23.342;2023-12-20T09:35:07;95175.09;;;2.61;75.55
52957;BME280;38819;42.692;23.342;2023-12-20T09:37:33;95167.28;;;2.54;76.04
52957;BME280;38819;42.692;23.342;2023-12-20T09:39:59;95161.03;;;2.49;75.86
52957;BME280;38819;42.692;23.342;2023-12-20T09:45:16;95141.81;;;2.64;76.37
52957;BME280;38819;42.692;23.342;2023-12-20T09:47:44;95148.22;;;2.63;76.49
52957;BME280;38819;42.692;23.342;2023-12-20T09:50:10;95146.41;;;2.68;76.44
52957;BME280;38819;42.692;23.342;2023-12-20T09:52:36;95144.78;;;2.67;76.48
52957;BME280;38819;42.692;23.342;2023-12-20T09:55:01;95140.34;;;2.73;76.31
52957;BME280;38819;42.692;23.342;2023-12-20T09:57:30;95140.09;;;2.74;76.26
52957;BME280;38819;42.692;23.342;2023-12-20T09:59:56;95130.66;;;2.67;76.92
52957;BME280;38819;42.692;23.342;2023-12-20T10:02:21;95128.47;;;2.64;76.94
52957;BME280;38819;42.692;23.342;2023-12-20T10:04:48;95120.94;;;2.77;76.64
52957;BME280;38819;42.692;23.342;2023-12-20T10:07:14;95134.13;;;2.84;76.90
52957;BME280;38819;42.692;23.342;2023-12-20T10:09:39;95130.44;;;2.90;76.66
52957;BME280;38819;42.692;23.342;2023-12-20T10:12:05;95121.34;;;2.86;76.76
52957;BME280;38819;42.692;23.342;2023-12-20T10:14:32;95107.44;;;2.84;76.67
52957;BME280;38819;42.692;23.342;2023-12-20T10:17:03;95103.16;;;2.83;76.68
52957;BME280;38819;42.692;23.342;2023-12-20T10:19:29;95099.94;;;2.81;76.88
52957;BME280;38819;42.692;23.342;2023-12-20T10:21:54;95095.47;;;2.87;77.00
52957;BME280;38819;42.692;23.342;2023-12-20T10:24:19;95097.09;;;2.88;76.87
52957;BME280;38819;42.692;23.342;2023-12-20T10:26:45;95088.91;;;2.94;77.08
52957;BME280;38819;42.692;23.342;2023-12-20T10:29:10;95086.28;;;3.00;77.21
52957;BME280;38819;42.692;23.342;2023-12-20T10:31:36;95070.09;;;3.06;77.04
52957;BME280;38819;42.692;23.342;2023-12-20T10:34:02;95064.69;;;3.01;76.71
52957;BME280;38819;42.692;23.342;2023-12-20T10:36:32;95070.22;;;2.94;76.84
52957;BME280;38819;42.692;23.342;2023-12-20T10:38:57;95069.75;;;2.81;77.24
52957;BME280;38819;42.692;23.342;2023-12-20T10:41:27;95069.75;;;2.81;77.49
52957;BME280;38819;42.692;23.342;2023-12-20T10:43:56;95065.69;;;2.95;77.36
52957;BME280;38819;42.692;23.342;2023-12-20T10:46:23;95048.81;;;2.89;77.64
52957;BME280;38819;42.692;23.342;2023-12-20T10:48:51;95049.50;;;2.80;77.70
52957;BME280;38819;42.692;23.342;2023-12-20T10:51:17;95038.38;;;2.66;77.74
52957;BME280;38819;42.692;23.342;2023-12-20T10:53:43;95047.59;;;2.58;78.58
52957;BME280;38819;42.692;23.342;2023-12-20T10:56:09;95036.53;;;2.66;78.95
52957;BME280;38819;42.692;23.342;2023-12-20T10:58:37;95039.94;;;2.84;78.48
52957;BME280;38819;42.692;23.342;2023-12-20T11:01:05;95030.22;;;2.94;77.92
52957;BME280;38819;42.692;23.342;2023-12-20T11:03:32;95021.06;;;2.90;77.58
52957;BME280;38819;42.692;23.342;2023-12-20T11:06:00;95024.13;;;2.99;78.04
52957;BME280;38819;42.692;23.342;2023-12-20T11:11:18;95007.97;;;3.11;77.27
52957;BME280;38819;42.692;23.342;2023-12-20T11:14:00;95010.31;;;3.07;77.17
52957;BME280;38819;42.692;23.342;2023-12-20T11:16:27;95004.25;;;3.12;77.04
52957;BME280;38819;42.692;23.342;2023-12-20T11:18:52;94998.34;;;3.10;77.26
52957;BME280;38819;42.692;23.342;2023-12-20T11:21:17;94993.41;;;3.24;77.24
52957;BME280;38819;42.692;23.342;2023-12-20T11:23:42;94992.38;;;3.25;77.07
52957;BME280;38819;42.692;23.342;2023-12-20T11:26:08;94978.28;;;3.29;77.29
52957;BME280;38819;42.692;23.342;2023-12-20T11:28:33;94972.44;;;3.32;76.89
52957;BME280;38819;42.692;23.342;2023-12-20T11:30:58;94966.59;;;3.08;77.71
52957;BME280;38819;42.692;23.342;2023-12-20T11:33:26;94953.84;;;3.15;77.84
52957;BME280;38819;42.692;23.342;2023-12-20T11:35:51;94962.38;;;3.12;77.84
52957;BME280;38819;42.692;23.342;2023-12-20T11:38:19;94948.63;;;3.26;77.63
52957;BME280;38819;42.692;23.342;2023-12-20T11:40:44;94942.41;;;3.20;77.54
52957;BME280;38819;42.692;23.342;2023-12-20T11:43:12;94941.97;;;3.28;77.53
52957;BME280;38819;42.692;23.342;2023-12-20T11:45:54;94940.03;;;3.24;77.71
52957;BME280;38819;42.692;23.342;2023-12-20T11:48:19;94925.91;;;3.23;77.52
52957;BME280;38819;42.692;23.342;2023-12-20T11:50:44;94924.91;;;3.29;77.63
52957;BME280;38819;42.692;23.342;2023-12-20T11:53:10;94921.44;;;3.34;77.47
52957;BME280;38819;42.692;23.342;2023-12-20T11:55:35;94913.19;;;3.36;77.49
52957;BME280;38819;42.692;23.342;2023-12-20T11:58:01;94916.63;;;3.31;77.63
52957;BME280;38819;42.692;23.342;2023-12-20T12:00:27;94909.50;;;3.42;77.49
52957;BME280;38819;42.692;23.342;2023-12-20T12:02:56;94891.19;;;3.23;78.38
52957;BME280;38819;42.692;23.342;2023-12-20T12:05:21;94889.91;;;3.26;78.88
52957;BME280;38819;42.692;23.342;2023-12-20T12:07:47;94886.81;;;3.12;79.31
52957;BME280;38819;42.692;23.342;2023-12-20T12:10:12;94890.66;;;2.94;80.29
52957;BME280;38819;42.692;23.342;2023-12-20T12:12:37;94874.94;;;2.92;80.59
52957;BME280;38819;42.692;23.342;2023-12-20T12:15:03;94883.25;;;2.74;81.36
52957;BME280;38819;42.692;23.342;2023-12-20T12:17:30;94879.28;;;2.76;81.30
52957;BME280;38819;42.692;23.342;2023-12-20T12:20:02;94864.38;;;2.81;81.44
52957;BME280;38819;42.692;23.342;2023-12-20T12:22:27;94861.78;;;2.86;81.18
52957;BME280;38819;42.692;23.342;2023-12-20T12:24:53;94858.34;;;2.90;81.01
52957;BME280;38819;42.692;23.342;2023-12-20T12:27:19;94859.22;;;2.96;80.86
52957;BME280;38819;42.692;23.342;2023-12-20T12:30:03;94868.59;;;3.04;80.72
52957;BME280;38819;42.692;23.342;2023-12-20T12:32:28;94856.09;;;3.04;80.38
52957;BME280;38819;42.692;23.342;2023-12-20T12:34:54;94865.44;;;3.07;80.51
52957;BME280;38819;42.692;23.342;2023-12-20T12:37:19;94862.03;;;2.84;80.83
52957;BME280;38819;42.692;23.342;2023-12-20T12:39:46;94877.31;;;2.94;81.48
52957;BME280;38819;42.692;23.342;2023-12-20T12:42:11;94860.84;;;3.02;80.81
52957;BME280;38819;42.692;23.342;2023-12-20T12:44:36;94859.22;;;2.96;81.07
52957;BME280;38819;42.692;23.342;2023-12-20T12:47:02;94856.56;;;2.96;81.39
52957;BME280;38819;42.692;23.342;2023-12-20T12:49:28;94844.06;;;3.02;81.39
52957;BME280;38819;42.692;23.342;2023-12-20T12:51:53;94847.31;;;3.09;81.23
52957;BME280;38819;42.692;23.342;2023-12-20T12:54:21;94857.31;;;2.91;81.20
52957;BME280;38819;42.692;23.342;2023-12-20T12:56:46;94849.84;;;2.93;81.47